sensor_id;sensor_type;location;lat;lon;timestamp;P1;durP1;ratioP1;P2;durP2;ratioP2
20084;SDS011;10202;48.474;9.138;2023-08-21T00:02:05;8.80;;;7.47;;
20084;SDS011;10202;48.474;9.138;2023-08-21T00:04:33;9.77;;;7.38;;
20084;SDS011;10202;48.474;9.138;2023-08-21T00:06:58;9.15;;;7.22;;
20084;SDS011;10202;48.474;9.138;2023-08-21T00:09:26;10.38;;;7.25;;
20084;SDS011;10202;48.474;9.138;2023-08-21T00:11:51;12.55;;;7.22;;
20084;SDS011;10202;48.474;9.138;2023-08-21T00:14:19;8.07;;;6.78;;
20084;SDS011;10202;48.474;9.138;2023-08-21T00:16:44;10.55;;;7.22;;
20084;SDS011;10202;48.474;9.138;2023-08-21T00:19:10;9.93;;;6.75;;
20084;SDS011;10202;48.474;9.138;2023-08-21T00:21:40;8.82;;;6.70;;
20084;SDS011;10202;48.474;9.138;2023-08-21T00:24:08;12.95;;;7.20;;
20084;SDS011;10202;48.474;9.138;2023-08-21T00:26:36;9.85;;;7.63;;
20084;SDS011;10202;48.474;9.138;2023-08-21T00:29:04;10.73;;;7.00;;
20084;SDS011;10202;48.474;9.138;2023-08-21T00:31:30;10.82;;;7.22;;
20084;SDS011;10202;48.474;9.138;2023-08-21T00:33:55;7.95;;;6.90;;
20084;SDS011;10202;48.474;9.138;2023-08-21T00:36:26;11.23;;;6.35;;
20084;SDS011;10202;48.474;9.138;2023-08-21T00:38:51;11.23;;;7.03;;
20084;SDS011;10202;48.474;9.138;2023-08-21T00:41:20;12.20;;;7.43;;
20084;SDS011;10202;48.474;9.138;2023-08-21T00:43:48;9.60;;;7.15;;
20084;SDS011;10202;48.474;9.138;2023-08-21T00:46:14;16.98;;;6.90;;
20084;SDS011;10202;48.474;9.138;2023-08-21T00:48:43;11.95;;;7.28;;
20084;SDS011;10202;48.474;9.138;2023-08-21T00:51:09;10.45;;;6.63;;
20084;SDS011;10202;48.474;9.138;2023-08-21T00:53:39;10.20;;;6.68;;
20084;SDS011;10202;48.474;9.138;2023-08-21T00:56:11;10.73;;;7.22;;
20084;SDS011;10202;48.474;9.138;2023-08-21T00:58:42;7.85;;;6.60;;
20084;SDS011;10202;48.474;9.138;2023-08-21T01:01:10;8.05;;;6.85;;
20084;SDS011;10202;48.474;9.138;2023-08-21T01:03:39;16.08;;;6.72;;
20084;SDS011;10202;48.474;9.138;2023-08-21T01:06:10;12.30;;;7.10;;
20084;SDS011;10202;48.474;9.138;2023-08-21T01:08:40;7.70;;;6.80;;
20084;SDS011;10202;48.474;9.138;2023-08-21T01:11:35;11.38;;;6.90;;
20084;SDS011;10202;48.474;9.138;2023-08-21T01:16:38;8.30;;;7.25;;
20084;SDS011;10202;48.474;9.138;2023-08-21T01:19:14;8.68;;;6.22;;
20084;SDS011;10202;48.474;9.138;2023-08-21T01:21:51;8.05;;;5.93;;
20084;SDS011;10202;48.474;9.138;2023-08-21T01:24:20;13.20;;;7.25;;
20084;SDS011;10202;48.474;9.138;2023-08-21T01:26:48;8.32;;;6.80;;
20084;SDS011;10202;48.474;9.138;2023-08-21T01:29:13;8.05;;;6.75;;
20084;SDS011;10202;48.474;9.138;2023-08-21T01:31:38;15.85;;;7.20;;
20084;SDS011;10202;48.474;9.138;2023-08-21T01:34:05;8.13;;;6.38;;
20084;SDS011;10202;48.474;9.138;2023-08-21T01:36:34;9.23;;;6.55;;
20084;SDS011;10202;48.474;9.138;2023-08-21T01:39:04;8.93;;;7.22;;
20084;SDS011;10202;48.474;9.138;2023-08-21T01:41:35;8.27;;;6.75;;
20084;SDS011;10202;48.474;9.138;2023-08-21T01:44:00;8.88;;;6.25;;
20084;SDS011;10202;48.474;9.138;2023-08-21T01:46:26;13.40;;;7.25;;
20084;SDS011;10202;48.474;9.138;2023-08-21T01:48:55;9.05;;;6.50;;
20084;SDS011;10202;48.474;9.138;2023-08-21T01:51:22;9.30;;;6.50;;
20084;SDS011;10202;48.474;9.138;2023-08-21T01:53:50;9.20;;;7.10;;
20084;SDS011;10202;48.474;9.138;2023-08-21T01:56:20;11.15;;;6.95;;
20084;SDS011;10202;48.474;9.138;2023-08-21T01:58:48;8.73;;;6.35;;
20084;SDS011;10202;48.474;9.138;2023-08-21T02:01:18;10.93;;;6.40;;
20084;SDS011;10202;48.474;9.138;2023-08-21T02:03:46;8.90;;;6.43;;
20084;SDS011;10202;48.474;9.138;2023-08-21T02:06:14;7.53;;;6.28;;
20084;SDS011;10202;48.474;9.138;2023-08-21T02:08:40;7.80;;;6.68;;
20084;SDS011;10202;48.474;9.138;2023-08-21T02:11:08;11.80;;;6.65;;
20084;SDS011;10202;48.474;9.138;2023-08-21T02:13:38;13.57;;;6.65;;
20084;SDS011;10202;48.474;9.138;2023-08-21T02:16:06;8.75;;;6.72;;
20084;SDS011;10202;48.474;9.138;2023-08-21T02:18:36;7.10;;;6.32;;
20084;SDS011;10202;48.474;9.138;2023-08-21T02:21:03;12.18;;;6.95;;
20084;SDS011;10202;48.474;9.138;2023-08-21T02:23:29;10.80;;;6.15;;
20084;SDS011;10202;48.474;9.138;2023-08-21T02:25:56;12.35;;;7.03;;
20084;SDS011;10202;48.474;9.138;2023-08-21T02:28:25;10.68;;;6.78;;
20084;SDS011;10202;48.474;9.138;2023-08-21T02:30:53;10.63;;;7.07;;
20084;SDS011;10202;48.474;9.138;2023-08-21T02:33:21;7.95;;;6.32;;
20084;SDS011;10202;48.474;9.138;2023-08-21T02:35:50;8.77;;;6.60;;
20084;SDS011;10202;48.474;9.138;2023-08-21T02:38:19;9.15;;;6.78;;
20084;SDS011;10202;48.474;9.138;2023-08-21T02:40:49;6.75;;;6.03;;
20084;SDS011;10202;48.474;9.138;2023-08-21T02:43:20;9.27;;;6.68;;
20084;SDS011;10202;48.474;9.138;2023-08-21T02:45:48;9.00;;;6.72;;
20084;SDS011;10202;48.474;9.138;2023-08-21T02:48:15;8.45;;;7.03;;
20084;SDS011;10202;48.474;9.138;2023-08-21T02:50:43;9.27;;;6.75;;
20084;SDS011;10202;48.474;9.138;2023-08-21T02:53:10;10.25;;;6.38;;
20084;SDS011;10202;48.474;9.138;2023-08-21T02:55:38;8.38;;;6.15;;
20084;SDS011;10202;48.474;9.138;2023-08-21T02:58:08;9.60;;;6.75;;
20084;SDS011;10202;48.474;9.138;2023-08-21T03:00:37;10.93;;;6.75;;
20084;SDS011;10202;48.474;9.138;2023-08-21T03:03:05;12.57;;;6.80;;
20084;SDS011;10202;48.474;9.138;2023-08-21T03:05:33;7.90;;;6.32;;
20084;SDS011;10202;48.474;9.138;2023-08-21T03:08:01;9.50;;;5.80;;
20084;SDS011;10202;48.474;9.138;2023-08-21T03:10:26;10.27;;;6.70;;
20084;SDS011;10202;48.474;9.138;2023-08-21T03:13:01;11.48;;;6.90;;
20084;SDS011;10202;48.474;9.138;2023-08-21T03:15:28;11.18;;;6.65;;
20084;SDS011;10202;48.474;9.138;2023-08-21T03:17:54;11.48;;;6.68;;
20084;SDS011;10202;48.474;9.138;2023-08-21T03:20:27;9.73;;;6.55;;
20084;SDS011;10202;48.474;9.138;2023-08-21T03:22:56;9.98;;;7.50;;
20084;SDS011;10202;48.474;9.138;2023-08-21T03:25:22;10.35;;;6.85;;
20084;SDS011;10202;48.474;9.138;2023-08-21T03:27:48;13.27;;;6.72;;
20084;SDS011;10202;48.474;9.138;2023-08-21T03:30:16;9.52;;;6.45;;
20084;SDS011;10202;48.474;9.138;2023-08-21T03:32:44;10.48;;;6.57;;
20084;SDS011;10202;48.474;9.138;2023-08-21T03:35:10;9.43;;;7.15;;
20084;SDS011;10202;48.474;9.138;2023-08-21T03:37:36;10.90;;;6.43;;
20084;SDS011;10202;48.474;9.138;2023-08-21T03:40:07;9.38;;;7.07;;
20084;SDS011;10202;48.474;9.138;2023-08-21T03:42:38;13.95;;;7.05;;
20084;SDS011;10202;48.474;9.138;2023-08-21T03:45:06;9.05;;;6.50;;
20084;SDS011;10202;48.474;9.138;2023-08-21T03:47:36;10.35;;;6.22;;
20084;SDS011;10202;48.474;9.138;2023-08-21T03:50:07;10.02;;;6.68;;
20084;SDS011;10202;48.474;9.138;2023-08-21T03:52:36;29.50;;;7.80;;
20084;SDS011;10202;48.474;9.138;2023-08-21T03:55:01;10.10;;;7.22;;
20084;SDS011;10202;48.474;9.138;2023-08-21T03:57:29;10.02;;;6.72;;
20084;SDS011;10202;48.474;9.138;2023-08-21T03:59:54;11.50;;;6.97;;
20084;SDS011;10202;48.474;9.138;2023-08-21T04:02:23;10.23;;;6.43;;
20084;SDS011;10202;48.474;9.138;2023-08-21T04:04:51;11.20;;;6.90;;
20084;SDS011;10202;48.474;9.138;2023-08-21T04:07:17;8.73;;;7.35;;
20084;SDS011;10202;48.474;9.138;2023-08-21T04:09:46;9.40;;;7.28;;
20084;SDS011;10202;48.474;9.138;2023-08-21T04:12:16;11.05;;;7.10;;
20084;SDS011;10202;48.474;9.138;2023-08-21T04:14:44;9.68;;;6.32;;
20084;SDS011;10202;48.474;9.138;2023-08-21T04:17:09;11.85;;;7.65;;
20084;SDS011;10202;48.474;9.138;2023-08-21T04:19:39;10.98;;;7.22;;
20084;SDS011;10202;48.474;9.138;2023-08-21T04:22:08;10.65;;;6.63;;
20084;SDS011;10202;48.474;9.138;2023-08-21T04:24:41;10.00;;;6.50;;
20084;SDS011;10202;48.474;9.138;2023-08-21T04:27:07;11.43;;;6.45;;
20084;SDS011;10202;48.474;9.138;2023-08-21T04:29:38;8.23;;;6.75;;
20084;SDS011;10202;48.474;9.138;2023-08-21T04:32:11;8.93;;;7.10;;
20084;SDS011;10202;48.474;9.138;2023-08-21T04:34:38;10.02;;;7.22;;
20084;SDS011;10202;48.474;9.138;2023-08-21T04:37:06;11.23;;;7.25;;
20084;SDS011;10202;48.474;9.138;2023-08-21T04:39:31;11.60;;;7.32;;
20084;SDS011;10202;48.474;9.138;2023-08-21T04:41:57;9.32;;;7.15;;
20084;SDS011;10202;48.474;9.138;2023-08-21T04:44:24;9.95;;;6.47;;
20084;SDS011;10202;48.474;9.138;2023-08-21T04:46:50;17.02;;;7.65;;
20084;SDS011;10202;48.474;9.138;2023-08-21T04:49:21;9.38;;;6.38;;
20084;SDS011;10202;48.474;9.138;2023-08-21T04:51:51;10.27;;;6.43;;
20084;SDS011;10202;48.474;9.138;2023-08-21T04:54:19;12.55;;;7.30;;
20084;SDS011;10202;48.474;9.138;2023-08-21T04:56:47;10.43;;;7.78;;
20084;SDS011;10202;48.474;9.138;2023-08-21T04:59:18;10.88;;;7.22;;
20084;SDS011;10202;48.474;9.138;2023-08-21T05:01:49;13.43;;;7.25;;
20084;SDS011;10202;48.474;9.138;2023-08-21T05:04:15;11.63;;;7.63;;
20084;SDS011;10202;48.474;9.138;2023-08-21T05:06:47;13.23;;;7.07;;
20084;SDS011;10202;48.474;9.138;2023-08-21T05:09:15;9.77;;;6.90;;
20084;SDS011;10202;48.474;9.138;2023-08-21T05:11:45;9.85;;;6.90;;
20084;SDS011;10202;48.474;9.138;2023-08-21T05:14:15;11.25;;;7.15;;
20084;SDS011;10202;48.474;9.138;2023-08-21T05:16:41;9.68;;;7.38;;
20084;SDS011;10202;48.474;9.138;2023-08-21T05:19:09;10.77;;;7.35;;
20084;SDS011;10202;48.474;9.138;2023-08-21T05:21:39;10.20;;;7.50;;
20084;SDS011;10202;48.474;9.138;2023-08-21T05:24:05;10.05;;;7.18;;
20084;SDS011;10202;48.474;9.138;2023-08-21T05:26:31;10.35;;;7.22;;
20084;SDS011;10202;48.474;9.138;2023-08-21T05:29:03;9.57;;;7.32;;
20084;SDS011;10202;48.474;9.138;2023-08-21T05:31:30;10.15;;;7.47;;
20084;SDS011;10202;48.474;9.138;2023-08-21T05:33:58;9.30;;;7.10;;
20084;SDS011;10202;48.474;9.138;2023-08-21T05:36:25;11.50;;;6.70;;
20084;SDS011;10202;48.474;9.138;2023-08-21T05:38:52;9.02;;;7.18;;
20084;SDS011;10202;48.474;9.138;2023-08-21T05:41:24;11.13;;;6.90;;
20084;SDS011;10202;48.474;9.138;2023-08-21T05:43:52;8.40;;;6.90;;
20084;SDS011;10202;48.474;9.138;2023-08-21T05:46:22;11.30;;;6.88;;
20084;SDS011;10202;48.474;9.138;2023-08-21T05:48:47;9.05;;;7.03;;
20084;SDS011;10202;48.474;9.138;2023-08-21T05:51:13;13.65;;;7.25;;
20084;SDS011;10202;48.474;9.138;2023-08-21T05:53:41;11.25;;;7.50;;
20084;SDS011;10202;48.474;9.138;2023-08-21T05:56:08;10.63;;;6.80;;
20084;SDS011;10202;48.474;9.138;2023-08-21T05:58:34;9.18;;;6.75;;
20084;SDS011;10202;48.474;9.138;2023-08-21T06:00:59;10.27;;;7.50;;
20084;SDS011;10202;48.474;9.138;2023-08-21T06:03:32;8.90;;;7.35;;
20084;SDS011;10202;48.474;9.138;2023-08-21T06:06:11;10.43;;;7.55;;
20084;SDS011;10202;48.474;9.138;2023-08-21T06:08:39;9.43;;;6.90;;
20084;SDS011;10202;48.474;9.138;2023-08-21T06:11:09;10.07;;;7.20;;
20084;SDS011;10202;48.474;9.138;2023-08-21T06:13:37;9.02;;;7.40;;
20084;SDS011;10202;48.474;9.138;2023-08-21T06:16:05;10.25;;;7.78;;
20084;SDS011;10202;48.474;9.138;2023-08-21T06:18:33;12.45;;;7.38;;
20084;SDS011;10202;48.474;9.138;2023-08-21T06:20:59;8.70;;;7.00;;
20084;SDS011;10202;48.474;9.138;2023-08-21T06:23:28;9.85;;;6.70;;
20084;SDS011;10202;48.474;9.138;2023-08-21T06:25:56;9.70;;;7.25;;
20084;SDS011;10202;48.474;9.138;2023-08-21T06:28:26;8.38;;;7.47;;
20084;SDS011;10202;48.474;9.138;2023-08-21T06:30:59;12.48;;;7.85;;
20084;SDS011;10202;48.474;9.138;2023-08-21T06:33:32;9.82;;;7.60;;
20084;SDS011;10202;48.474;9.138;2023-08-21T06:35:58;12.98;;;7.55;;
20084;SDS011;10202;48.474;9.138;2023-08-21T06:38:25;13.23;;;7.38;;
20084;SDS011;10202;48.474;9.138;2023-08-21T06:40:54;13.40;;;7.07;;
20084;SDS011;10202;48.474;9.138;2023-08-21T06:43:24;9.27;;;7.38;;
20084;SDS011;10202;48.474;9.138;2023-08-21T06:45:56;10.52;;;7.63;;
20084;SDS011;10202;48.474;9.138;2023-08-21T06:48:23;8.35;;;7.03;;
20084;SDS011;10202;48.474;9.138;2023-08-21T06:50:50;12.38;;;7.03;;
20084;SDS011;10202;48.474;9.138;2023-08-21T06:53:15;8.85;;;6.95;;
20084;SDS011;10202;48.474;9.138;2023-08-21T06:55:44;8.45;;;7.32;;
20084;SDS011;10202;48.474;9.138;2023-08-21T06:58:12;10.20;;;7.55;;
20084;SDS011;10202;48.474;9.138;2023-08-21T07:00:38;10.85;;;7.78;;
20084;SDS011;10202;48.474;9.138;2023-08-21T07:03:04;9.57;;;7.10;;
20084;SDS011;10202;48.474;9.138;2023-08-21T07:05:34;10.43;;;7.57;;
20084;SDS011;10202;48.474;9.138;2023-08-21T07:08:02;8.15;;;7.00;;
20084;SDS011;10202;48.474;9.138;2023-08-21T07:10:28;10.18;;;6.80;;
20084;SDS011;10202;48.474;9.138;2023-08-21T07:12:59;11.20;;;7.18;;
20084;SDS011;10202;48.474;9.138;2023-08-21T07:15:26;9.80;;;7.22;;
20084;SDS011;10202;48.474;9.138;2023-08-21T07:17:54;10.40;;;7.15;;
20084;SDS011;10202;48.474;9.138;2023-08-21T07:20:20;9.18;;;7.70;;
20084;SDS011;10202;48.474;9.138;2023-08-21T07:22:46;10.18;;;6.82;;
20084;SDS011;10202;48.474;9.138;2023-08-21T07:25:12;12.07;;;7.57;;
20084;SDS011;10202;48.474;9.138;2023-08-21T07:27:39;10.90;;;7.35;;
20084;SDS011;10202;48.474;9.138;2023-08-21T07:30:07;8.88;;;6.70;;
20084;SDS011;10202;48.474;9.138;2023-08-21T07:32:36;11.82;;;7.78;;
20084;SDS011;10202;48.474;9.138;2023-08-21T07:35:01;9.85;;;7.68;;
20084;SDS011;10202;48.474;9.138;2023-08-21T07:37:29;11.43;;;7.25;;
20084;SDS011;10202;48.474;9.138;2023-08-21T07:39:57;12.27;;;7.15;;
20084;SDS011;10202;48.474;9.138;2023-08-21T07:42:24;8.45;;;6.93;;
20084;SDS011;10202;48.474;9.138;2023-08-21T07:44:52;8.38;;;7.07;;
20084;SDS011;10202;48.474;9.138;2023-08-21T07:47:22;11.63;;;7.25;;
20084;SDS011;10202;48.474;9.138;2023-08-21T07:49:48;10.05;;;6.95;;
20084;SDS011;10202;48.474;9.138;2023-08-21T07:52:18;10.70;;;7.05;;
20084;SDS011;10202;48.474;9.138;2023-08-21T07:54:54;13.45;;;6.90;;
20084;SDS011;10202;48.474;9.138;2023-08-21T07:57:20;9.57;;;7.15;;
20084;SDS011;10202;48.474;9.138;2023-08-21T07:59:45;10.52;;;7.07;;
20084;SDS011;10202;48.474;9.138;2023-08-21T08:02:13;10.02;;;7.40;;
20084;SDS011;10202;48.474;9.138;2023-08-21T08:04:42;8.97;;;6.83;;
20084;SDS011;10202;48.474;9.138;2023-08-21T08:07:09;10.10;;;7.40;;
20084;SDS011;10202;48.474;9.138;2023-08-21T08:09:40;10.23;;;7.20;;
20084;SDS011;10202;48.474;9.138;2023-08-21T08:12:08;11.10;;;7.43;;
20084;SDS011;10202;48.474;9.138;2023-08-21T08:14:36;11.63;;;7.07;;
20084;SDS011;10202;48.474;9.138;2023-08-21T08:17:01;9.43;;;7.38;;
20084;SDS011;10202;48.474;9.138;2023-08-21T08:19:29;9.38;;;7.20;;
20084;SDS011;10202;48.474;9.138;2023-08-21T08:21:57;14.23;;;7.45;;
20084;SDS011;10202;48.474;9.138;2023-08-21T08:24:27;11.15;;;7.53;;
20084;SDS011;10202;48.474;9.138;2023-08-21T08:26:52;8.15;;;7.30;;
20084;SDS011;10202;48.474;9.138;2023-08-21T08:29:18;9.80;;;7.20;;
20084;SDS011;10202;48.474;9.138;2023-08-21T08:31:48;11.32;;;7.80;;
20084;SDS011;10202;48.474;9.138;2023-08-21T08:34:18;12.32;;;7.93;;
20084;SDS011;10202;48.474;9.138;2023-08-21T08:36:45;10.07;;;7.60;;
20084;SDS011;10202;48.474;9.138;2023-08-21T08:39:13;11.30;;;7.50;;
20084;SDS011;10202;48.474;9.138;2023-08-21T08:41:43;10.15;;;7.68;;
20084;SDS011;10202;48.474;9.138;2023-08-21T08:44:15;10.20;;;7.88;;
20084;SDS011;10202;48.474;9.138;2023-08-21T08:46:42;12.57;;;7.97;;
20084;SDS011;10202;48.474;9.138;2023-08-21T08:49:13;13.10;;;8.05;;
20084;SDS011;10202;48.474;9.138;2023-08-21T08:51:41;9.80;;;7.18;;
20084;SDS011;10202;48.474;9.138;2023-08-21T08:54:09;11.30;;;8.35;;
20084;SDS011;10202;48.474;9.138;2023-08-21T08:56:37;9.43;;;7.88;;
20084;SDS011;10202;48.474;9.138;2023-08-21T08:59:05;11.60;;;7.60;;
20084;SDS011;10202;48.474;9.138;2023-08-21T09:01:36;13.90;;;8.05;;
20084;SDS011;10202;48.474;9.138;2023-08-21T09:04:03;9.82;;;8.27;;
20084;SDS011;10202;48.474;9.138;2023-08-21T09:06:29;10.77;;;8.15;;
20084;SDS011;10202;48.474;9.138;2023-08-21T09:09:00;14.15;;;8.18;;
20084;SDS011;10202;48.474;9.138;2023-08-21T09:11:28;12.65;;;8.32;;
20084;SDS011;10202;48.474;9.138;2023-08-21T09:13:56;11.52;;;8.10;;
20084;SDS011;10202;48.474;9.138;2023-08-21T09:16:24;11.55;;;8.18;;
20084;SDS011;10202;48.474;9.138;2023-08-21T09:18:53;11.27;;;8.13;;
20084;SDS011;10202;48.474;9.138;2023-08-21T09:21:24;13.50;;;7.97;;
20084;SDS011;10202;48.474;9.138;2023-08-21T09:23:55;13.50;;;7.60;;
20084;SDS011;10202;48.474;9.138;2023-08-21T09:26:25;16.60;;;8.07;;
20084;SDS011;10202;48.474;9.138;2023-08-21T09:28:55;11.57;;;7.68;;
20084;SDS011;10202;48.474;9.138;2023-08-21T09:31:32;8.73;;;7.70;;
20084;SDS011;10202;48.474;9.138;2023-08-21T09:34:02;9.77;;;7.75;;
20084;SDS011;10202;48.474;9.138;2023-08-21T09:36:30;8.77;;;7.07;;
20084;SDS011;10202;48.474;9.138;2023-08-21T09:39:03;12.90;;;7.53;;
20084;SDS011;10202;48.474;9.138;2023-08-21T09:41:36;12.98;;;7.75;;
20084;SDS011;10202;48.474;9.138;2023-08-21T09:44:04;10.90;;;7.63;;
20084;SDS011;10202;48.474;9.138;2023-08-21T09:46:31;9.43;;;8.02;;
20084;SDS011;10202;48.474;9.138;2023-08-21T09:49:02;11.82;;;7.63;;
20084;SDS011;10202;48.474;9.138;2023-08-21T09:51:38;11.50;;;7.38;;
20084;SDS011;10202;48.474;9.138;2023-08-21T09:54:06;15.80;;;8.48;;
20084;SDS011;10202;48.474;9.138;2023-08-21T09:56:34;10.35;;;7.38;;
20084;SDS011;10202;48.474;9.138;2023-08-21T09:59:02;9.18;;;7.10;;
20084;SDS011;10202;48.474;9.138;2023-08-21T10:01:28;9.27;;;7.18;;
20084;SDS011;10202;48.474;9.138;2023-08-21T10:03:57;13.30;;;7.17;;
20084;SDS011;10202;48.474;9.138;2023-08-21T10:06:26;17.30;;;7.57;;
20084;SDS011;10202;48.474;9.138;2023-08-21T10:08:53;8.15;;;7.07;;
20084;SDS011;10202;48.474;9.138;2023-08-21T10:11:24;11.00;;;7.25;;
20084;SDS011;10202;48.474;9.138;2023-08-21T10:13:52;9.27;;;7.32;;
20084;SDS011;10202;48.474;9.138;2023-08-21T10:16:22;11.98;;;7.60;;
20084;SDS011;10202;48.474;9.138;2023-08-21T10:18:48;10.52;;;7.00;;
20084;SDS011;10202;48.474;9.138;2023-08-21T10:21:19;9.43;;;7.20;;
20084;SDS011;10202;48.474;9.138;2023-08-21T10:23:51;10.35;;;6.97;;
20084;SDS011;10202;48.474;9.138;2023-08-21T10:26:18;10.70;;;7.25;;
20084;SDS011;10202;48.474;9.138;2023-08-21T10:28:51;10.85;;;7.32;;
20084;SDS011;10202;48.474;9.138;2023-08-21T10:34:03;8.43;;;7.15;;
20084;SDS011;10202;48.474;9.138;2023-08-21T10:41:43;11.43;;;6.80;;
20084;SDS011;10202;48.474;9.138;2023-08-21T10:47:12;10.95;;;6.75;;
20084;SDS011;10202;48.474;9.138;2023-08-21T10:49:42;9.57;;;6.78;;
20084;SDS011;10202;48.474;9.138;2023-08-21T10:52:12;10.63;;;7.10;;
20084;SDS011;10202;48.474;9.138;2023-08-21T10:54:47;8.93;;;7.00;;
20084;SDS011;10202;48.474;9.138;2023-08-21T10:57:19;8.55;;;7.22;;
20084;SDS011;10202;48.474;9.138;2023-08-21T10:59:56;8.45;;;7.10;;
20084;SDS011;10202;48.474;9.138;2023-08-21T11:02:23;7.43;;;6.65;;
20084;SDS011;10202;48.474;9.138;2023-08-21T11:04:53;7.68;;;6.60;;
20084;SDS011;10202;48.474;9.138;2023-08-21T11:07:21;9.07;;;7.13;;
20084;SDS011;10202;48.474;9.138;2023-08-21T11:09:50;7.82;;;6.97;;
20084;SDS011;10202;48.474;9.138;2023-08-21T11:12:17;9.50;;;7.05;;
20084;SDS011;10202;48.474;9.138;2023-08-21T11:14:43;11.07;;;7.47;;
20084;SDS011;10202;48.474;9.138;2023-08-21T11:17:11;11.75;;;7.00;;
20084;SDS011;10202;48.474;9.138;2023-08-21T11:19:39;8.73;;;6.68;;
20084;SDS011;10202;48.474;9.138;2023-08-21T11:22:06;8.77;;;6.90;;
20084;SDS011;10202;48.474;9.138;2023-08-21T11:27:05;10.45;;;7.35;;
20084;SDS011;10202;48.474;9.138;2023-08-21T11:29:41;13.05;;;7.95;;
20084;SDS011;10202;48.474;9.138;2023-08-21T11:32:13;9.07;;;7.10;;
20084;SDS011;10202;48.474;9.138;2023-08-21T11:34:46;9.88;;;6.70;;
20084;SDS011;10202;48.474;9.138;2023-08-21T11:37:17;10.57;;;7.35;;
20084;SDS011;10202;48.474;9.138;2023-08-21T11:42:32;12.60;;;7.35;;
20084;SDS011;10202;48.474;9.138;2023-08-21T11:45:01;15.77;;;7.35;;
20084;SDS011;10202;48.474;9.138;2023-08-21T11:47:30;8.00;;;7.20;;
20084;SDS011;10202;48.474;9.138;2023-08-21T11:50:02;10.55;;;7.60;;
20084;SDS011;10202;48.474;9.138;2023-08-21T11:52:35;11.52;;;6.85;;
20084;SDS011;10202;48.474;9.138;2023-08-21T11:55:06;9.60;;;7.05;;
20084;SDS011;10202;48.474;9.138;2023-08-21T12:00:16;10.18;;;7.55;;
20084;SDS011;10202;48.474;9.138;2023-08-21T12:02:54;15.95;;;7.43;;
20084;SDS011;10202;48.474;9.138;2023-08-21T12:05:28;11.35;;;7.80;;
20084;SDS011;10202;48.474;9.138;2023-08-21T12:08:01;9.45;;;7.55;;
20084;SDS011;10202;48.474;9.138;2023-08-21T12:10:28;12.13;;;7.68;;
20084;SDS011;10202;48.474;9.138;2023-08-21T12:12:56;9.77;;;7.30;;
20084;SDS011;10202;48.474;9.138;2023-08-21T12:15:26;11.07;;;7.13;;
20084;SDS011;10202;48.474;9.138;2023-08-21T12:17:54;11.07;;;7.57;;
20084;SDS011;10202;48.474;9.138;2023-08-21T12:20:22;13.93;;;7.57;;
20084;SDS011;10202;48.474;9.138;2023-08-21T12:22:52;8.82;;;7.05;;
20084;SDS011;10202;48.474;9.138;2023-08-21T12:25:19;8.20;;;7.35;;
20084;SDS011;10202;48.474;9.138;2023-08-21T12:27:50;10.57;;;7.20;;
20084;SDS011;10202;48.474;9.138;2023-08-21T12:30:23;13.75;;;7.43;;
20084;SDS011;10202;48.474;9.138;2023-08-21T12:32:50;8.20;;;6.95;;
20084;SDS011;10202;48.474;9.138;2023-08-21T12:35:16;9.82;;;7.40;;
20084;SDS011;10202;48.474;9.138;2023-08-21T12:37:46;10.27;;;7.90;;
20084;SDS011;10202;48.474;9.138;2023-08-21T12:40:11;8.85;;;7.60;;
20084;SDS011;10202;48.474;9.138;2023-08-21T12:42:37;15.15;;;8.35;;
20084;SDS011;10202;48.474;9.138;2023-08-21T12:45:02;18.60;;;8.20;;
20084;SDS011;10202;48.474;9.138;2023-08-21T12:47:35;12.43;;;7.47;;
20084;SDS011;10202;48.474;9.138;2023-08-21T12:50:03;12.38;;;7.68;;
20084;SDS011;10202;48.474;9.138;2023-08-21T12:52:28;12.18;;;7.25;;
20084;SDS011;10202;48.474;9.138;2023-08-21T12:54:58;11.45;;;7.47;;
20084;SDS011;10202;48.474;9.138;2023-08-21T12:57:26;10.98;;;7.00;;
20084;SDS011;10202;48.474;9.138;2023-08-21T12:59:52;13.05;;;7.50;;
20084;SDS011;10202;48.474;9.138;2023-08-21T13:02:17;10.90;;;7.18;;
20084;SDS011;10202;48.474;9.138;2023-08-21T13:04:46;8.68;;;7.55;;
20084;SDS011;10202;48.474;9.138;2023-08-21T13:07:11;11.48;;;7.47;;
20084;SDS011;10202;48.474;9.138;2023-08-21T13:09:41;12.43;;;7.85;;
20084;SDS011;10202;48.474;9.138;2023-08-21T13:12:09;11.65;;;7.50;;
20084;SDS011;10202;48.474;9.138;2023-08-21T13:14:40;11.40;;;7.65;;
20084;SDS011;10202;48.474;9.138;2023-08-21T13:17:10;11.27;;;7.18;;
20084;SDS011;10202;48.474;9.138;2023-08-21T13:19:38;12.40;;;7.03;;
20084;SDS011;10202;48.474;9.138;2023-08-21T13:22:04;9.90;;;6.90;;
20084;SDS011;10202;48.474;9.138;2023-08-21T13:24:29;10.98;;;7.30;;
20084;SDS011;10202;48.474;9.138;2023-08-21T13:26:55;11.13;;;7.53;;
20084;SDS011;10202;48.474;9.138;2023-08-21T13:29:25;10.85;;;7.47;;
20084;SDS011;10202;48.474;9.138;2023-08-21T13:31:51;10.52;;;7.47;;
20084;SDS011;10202;48.474;9.138;2023-08-21T13:34:16;12.88;;;9.32;;
20084;SDS011;10202;48.474;9.138;2023-08-21T13:36:44;12.63;;;7.43;;
20084;SDS011;10202;48.474;9.138;2023-08-21T13:39:12;10.30;;;7.15;;
20084;SDS011;10202;48.474;9.138;2023-08-21T13:41:40;12.52;;;7.45;;
20084;SDS011;10202;48.474;9.138;2023-08-21T13:44:06;9.18;;;7.18;;
20084;SDS011;10202;48.474;9.138;2023-08-21T13:46:35;10.18;;;6.63;;
20084;SDS011;10202;48.474;9.138;2023-08-21T13:49:00;11.32;;;6.57;;
20084;SDS011;10202;48.474;9.138;2023-08-21T13:51:33;9.32;;;6.85;;
20084;SDS011;10202;48.474;9.138;2023-08-21T13:54:07;13.85;;;6.97;;
20084;SDS011;10202;48.474;9.138;2023-08-21T13:56:32;11.50;;;6.38;;
20084;SDS011;10202;48.474;9.138;2023-08-21T13:59:02;12.00;;;7.20;;
20084;SDS011;10202;48.474;9.138;2023-08-21T14:01:28;14.23;;;9.95;;
20084;SDS011;10202;48.474;9.138;2023-08-21T14:03:56;9.20;;;6.32;;
20084;SDS011;10202;48.474;9.138;2023-08-21T14:06:27;10.48;;;5.60;;
20084;SDS011;10202;48.474;9.138;2023-08-21T14:08:54;7.47;;;5.72;;
20084;SDS011;10202;48.474;9.138;2023-08-21T14:11:21;10.50;;;5.53;;
20084;SDS011;10202;48.474;9.138;2023-08-21T14:13:49;14.15;;;6.05;;
20084;SDS011;10202;48.474;9.138;2023-08-21T14:16:15;11.02;;;6.18;;
20084;SDS011;10202;48.474;9.138;2023-08-21T14:18:41;11.90;;;6.18;;
20084;SDS011;10202;48.474;9.138;2023-08-21T14:21:08;9.02;;;6.20;;
20084;SDS011;10202;48.474;9.138;2023-08-21T14:23:36;7.05;;;6.13;;
20084;SDS011;10202;48.474;9.138;2023-08-21T14:26:04;6.32;;;5.40;;
20084;SDS011;10202;48.474;9.138;2023-08-21T14:28:32;6.32;;;5.50;;
20084;SDS011;10202;48.474;9.138;2023-08-21T14:31:00;10.93;;;6.20;;
20084;SDS011;10202;48.474;9.138;2023-08-21T14:33:25;8.82;;;6.10;;
20084;SDS011;10202;48.474;9.138;2023-08-21T14:35:51;10.23;;;5.75;;
20084;SDS011;10202;48.474;9.138;2023-08-21T14:38:19;13.18;;;6.13;;
20084;SDS011;10202;48.474;9.138;2023-08-21T14:40:44;9.02;;;5.85;;
20084;SDS011;10202;48.474;9.138;2023-08-21T14:43:12;9.95;;;6.63;;
20084;SDS011;10202;48.474;9.138;2023-08-21T14:45:42;11.27;;;6.00;;
20084;SDS011;10202;48.474;9.138;2023-08-21T14:48:12;7.80;;;6.13;;
20084;SDS011;10202;48.474;9.138;2023-08-21T14:50:37;7.95;;;6.22;;
20084;SDS011;10202;48.474;9.138;2023-08-21T14:53:05;8.38;;;6.40;;
20084;SDS011;10202;48.474;9.138;2023-08-21T14:55:34;9.13;;;6.20;;
20084;SDS011;10202;48.474;9.138;2023-08-21T14:57:59;9.10;;;6.18;;
20084;SDS011;10202;48.474;9.138;2023-08-21T15:00:31;11.95;;;6.05;;
20084;SDS011;10202;48.474;9.138;2023-08-21T15:03:01;10.60;;;6.15;;
20084;SDS011;10202;48.474;9.138;2023-08-21T15:05:31;8.77;;;6.10;;
20084;SDS011;10202;48.474;9.138;2023-08-21T15:07:57;10.50;;;6.45;;
20084;SDS011;10202;48.474;9.138;2023-08-21T15:10:24;8.00;;;6.15;;